sensor_id;sensor_type;location;lat;lon;timestamp;P1;durP1;ratioP1;P2;durP2;ratioP2
20181;SDS011;10250;50.756;6.172;2023-02-01T00:00:00;11.83;;;3.17;;
20181;SDS011;10250;50.756;6.172;2023-02-01T00:02:01;13.40;;;3.53;;
20181;SDS011;10250;50.756;6.172;2023-02-01T00:04:02;10.20;;;2.93;;
20181;SDS011;10250;50.756;6.172;2023-02-01T00:06:03;11.03;;;2.90;;
20181;SDS011;10250;50.756;6.172;2023-02-01T00:08:04;8.33;;;2.63;;
20181;SDS011;10250;50.756;6.172;2023-02-01T00:10:06;12.70;;;3.20;;
20181;SDS011;10250;50.756;6.172;2023-02-01T00:12:07;12.80;;;3.40;;
20181;SDS011;10250;50.756;6.172;2023-02-01T00:14:08;14.63;;;3.83;;
20181;SDS011;10250;50.756;6.172;2023-02-01T00:18:10;14.70;;;4.10;;
20181;SDS011;10250;50.756;6.172;2023-02-01T00:20:11;13.60;;;3.20;;
20181;SDS011;10250;50.756;6.172;2023-02-01T00:22:12;12.27;;;3.50;;
20181;SDS011;10250;50.756;6.172;2023-02-01T00:24:13;15.70;;;3.23;;
20181;SDS011;10250;50.756;6.172;2023-02-01T00:26:18;12.50;;;3.60;;
20181;SDS011;10250;50.756;6.172;2023-02-01T00:28:20;16.07;;;3.67;;
20181;SDS011;10250;50.756;6.172;2023-02-01T00:30:21;11.67;;;3.20;;
20181;SDS011;10250;50.756;6.172;2023-02-01T00:32:22;13.50;;;3.63;;
20181;SDS011;10250;50.756;6.172;2023-02-01T00:34:23;12.07;;;3.30;;
20181;SDS011;10250;50.756;6.172;2023-02-01T00:36:24;14.20;;;3.40;;
20181;SDS011;10250;50.756;6.172;2023-02-01T00:38:25;15.07;;;3.67;;
20181;SDS011;10250;50.756;6.172;2023-02-01T00:40:27;12.73;;;3.07;;
20181;SDS011;10250;50.756;6.172;2023-02-01T00:42:28;10.70;;;3.03;;
20181;SDS011;10250;50.756;6.172;2023-02-01T00:44:29;16.07;;;4.03;;
20181;SDS011;10250;50.756;6.172;2023-02-01T00:46:33;10.60;;;2.53;;
20181;SDS011;10250;50.756;6.172;2023-02-01T00:48:34;14.80;;;3.20;;
20181;SDS011;10250;50.756;6.172;2023-02-01T00:50:35;14.00;;;3.17;;
20181;SDS011;10250;50.756;6.172;2023-02-01T00:52:36;12.53;;;3.13;;
20181;SDS011;10250;50.756;6.172;2023-02-01T00:54:36;13.83;;;3.57;;
20181;SDS011;10250;50.756;6.172;2023-02-01T00:56:37;13.37;;;3.17;;
20181;SDS011;10250;50.756;6.172;2023-02-01T00:58:38;10.90;;;2.70;;
20181;SDS011;10250;50.756;6.172;2023-02-01T01:00:39;11.63;;;3.50;;
20181;SDS011;10250;50.756;6.172;2023-02-01T01:02:41;11.57;;;2.87;;
20181;SDS011;10250;50.756;6.172;2023-02-01T01:04:42;12.43;;;3.33;;
20181;SDS011;10250;50.756;6.172;2023-02-01T01:06:43;12.07;;;3.43;;
20181;SDS011;10250;50.756;6.172;2023-02-01T01:08:44;12.87;;;3.60;;
20181;SDS011;10250;50.756;6.172;2023-02-01T01:10:45;9.97;;;2.60;;
20181;SDS011;10250;50.756;6.172;2023-02-01T01:12:46;11.93;;;3.17;;
20181;SDS011;10250;50.756;6.172;2023-02-01T01:14:46;13.20;;;3.63;;
20181;SDS011;10250;50.756;6.172;2023-02-01T01:16:47;14.03;;;3.03;;
20181;SDS011;10250;50.756;6.172;2023-02-01T01:18:50;12.73;;;2.90;;
20181;SDS011;10250;50.756;6.172;2023-02-01T01:20:51;12.37;;;3.23;;
20181;SDS011;10250;50.756;6.172;2023-02-01T01:22:53;14.67;;;3.27;;
20181;SDS011;10250;50.756;6.172;2023-02-01T01:24:54;14.23;;;3.27;;
20181;SDS011;10250;50.756;6.172;2023-02-01T01:26:55;10.43;;;2.73;;
20181;SDS011;10250;50.756;6.172;2023-02-01T01:28:56;7.67;;;2.27;;
20181;SDS011;10250;50.756;6.172;2023-02-01T01:30:58;11.27;;;2.80;;
20181;SDS011;10250;50.756;6.172;2023-02-01T01:32:59;10.20;;;2.60;;
20181;SDS011;10250;50.756;6.172;2023-02-01T01:35:00;11.53;;;3.10;;
20181;SDS011;10250;50.756;6.172;2023-02-01T01:37:01;14.07;;;3.63;;
20181;SDS011;10250;50.756;6.172;2023-02-01T01:39:02;11.97;;;2.93;;
20181;SDS011;10250;50.756;6.172;2023-02-01T01:41:03;12.87;;;3.40;;
20181;SDS011;10250;50.756;6.172;2023-02-01T01:43:09;11.00;;;2.77;;
20181;SDS011;10250;50.756;6.172;2023-02-01T01:45:21;12.50;;;3.00;;
20181;SDS011;10250;50.756;6.172;2023-02-01T01:47:22;14.40;;;3.27;;
20181;SDS011;10250;50.756;6.172;2023-02-01T01:49:24;16.03;;;2.90;;
20181;SDS011;10250;50.756;6.172;2023-02-01T01:51:27;10.17;;;2.73;;
20181;SDS011;10250;50.756;6.172;2023-02-01T01:53:34;9.93;;;2.40;;
20181;SDS011;10250;50.756;6.172;2023-02-01T01:55:37;13.13;;;2.90;;
20181;SDS011;10250;50.756;6.172;2023-02-01T01:57:39;12.53;;;3.03;;
20181;SDS011;10250;50.756;6.172;2023-02-01T01:59:43;13.17;;;3.03;;
20181;SDS011;10250;50.756;6.172;2023-02-01T02:01:47;9.80;;;2.67;;
20181;SDS011;10250;50.756;6.172;2023-02-01T02:03:49;15.93;;;3.17;;
20181;SDS011;10250;50.756;6.172;2023-02-01T02:05:50;9.23;;;2.60;;
20181;SDS011;10250;50.756;6.172;2023-02-01T02:07:53;10.80;;;2.90;;
20181;SDS011;10250;50.756;6.172;2023-02-01T02:09:56;12.50;;;3.13;;
20181;SDS011;10250;50.756;6.172;2023-02-01T02:11:57;12.83;;;3.10;;
20181;SDS011;10250;50.756;6.172;2023-02-01T02:13:58;10.07;;;2.67;;
20181;SDS011;10250;50.756;6.172;2023-02-01T02:18:15;12.23;;;2.90;;
20181;SDS011;10250;50.756;6.172;2023-02-01T02:26:55;9.80;;;2.47;;
20181;SDS011;10250;50.756;6.172;2023-02-01T02:29:07;10.23;;;2.47;;
20181;SDS011;10250;50.756;6.172;2023-02-01T02:33:36;11.97;;;2.53;;
20181;SDS011;10250;50.756;6.172;2023-02-01T02:37:43;7.73;;;2.20;;
20181;SDS011;10250;50.756;6.172;2023-02-01T02:39:52;9.13;;;2.53;;
20181;SDS011;10250;50.756;6.172;2023-02-01T02:46:43;7.73;;;2.17;;
20181;SDS011;10250;50.756;6.172;2023-02-01T02:51:28;11.37;;;2.47;;
20181;SDS011;10250;50.756;6.172;2023-02-01T02:53:51;14.40;;;2.83;;
20181;SDS011;10250;50.756;6.172;2023-02-01T02:56:12;10.23;;;2.67;;
20181;SDS011;10250;50.756;6.172;2023-02-01T02:58:32;10.97;;;2.53;;
20181;SDS011;10250;50.756;6.172;2023-02-01T03:00:52;11.17;;;2.70;;
20181;SDS011;10250;50.756;6.172;2023-02-01T03:03:12;9.07;;;2.30;;
20181;SDS011;10250;50.756;6.172;2023-02-01T03:05:32;13.13;;;3.33;;
20181;SDS011;10250;50.756;6.172;2023-02-01T03:09:44;11.73;;;3.43;;
20181;SDS011;10250;50.756;6.172;2023-02-01T03:11:46;12.20;;;3.53;;
20181;SDS011;10250;50.756;6.172;2023-02-01T03:14:08;16.57;;;3.40;;
20181;SDS011;10250;50.756;6.172;2023-02-01T03:16:12;17.00;;;3.90;;
20181;SDS011;10250;50.756;6.172;2023-02-01T03:18:32;14.37;;;3.50;;
20181;SDS011;10250;50.756;6.172;2023-02-01T03:20:34;11.03;;;3.40;;
20181;SDS011;10250;50.756;6.172;2023-02-01T03:22:35;12.83;;;3.53;;
20181;SDS011;10250;50.756;6.172;2023-02-01T03:26:39;12.53;;;2.60;;
20181;SDS011;10250;50.756;6.172;2023-02-01T03:28:48;11.67;;;2.50;;
20181;SDS011;10250;50.756;6.172;2023-02-01T03:30:51;13.07;;;3.00;;
20181;SDS011;10250;50.756;6.172;2023-02-01T03:32:53;9.77;;;2.83;;
20181;SDS011;10250;50.756;6.172;2023-02-01T03:35:01;12.93;;;2.77;;
20181;SDS011;10250;50.756;6.172;2023-02-01T03:37:06;13.13;;;3.30;;
20181;SDS011;10250;50.756;6.172;2023-02-01T03:39:15;8.10;;;2.37;;
20181;SDS011;10250;50.756;6.172;2023-02-01T03:43:18;11.63;;;3.00;;
20181;SDS011;10250;50.756;6.172;2023-02-01T03:47:23;11.57;;;2.53;;
20181;SDS011;10250;50.756;6.172;2023-02-01T03:49:35;8.57;;;2.30;;
20181;SDS011;10250;50.756;6.172;2023-02-01T03:51:38;11.47;;;2.60;;
20181;SDS011;10250;50.756;6.172;2023-02-01T03:53:40;9.73;;;2.37;;
20181;SDS011;10250;50.756;6.172;2023-02-01T03:55:42;8.07;;;2.47;;
20181;SDS011;10250;50.756;6.172;2023-02-01T03:57:44;14.03;;;2.90;;
20181;SDS011;10250;50.756;6.172;2023-02-01T03:59:46;11.07;;;2.90;;
20181;SDS011;10250;50.756;6.172;2023-02-01T04:01:47;7.83;;;2.07;;
20181;SDS011;10250;50.756;6.172;2023-02-01T04:03:48;10.63;;;2.33;;
20181;SDS011;10250;50.756;6.172;2023-02-01T04:05:51;11.47;;;2.27;;
20181;SDS011;10250;50.756;6.172;2023-02-01T04:07:52;9.93;;;2.23;;
20181;SDS011;10250;50.756;6.172;2023-02-01T04:09:54;6.83;;;1.67;;
20181;SDS011;10250;50.756;6.172;2023-02-01T04:11:55;10.87;;;2.23;;
20181;SDS011;10250;50.756;6.172;2023-02-01T04:13:56;8.73;;;1.80;;
20181;SDS011;10250;50.756;6.172;2023-02-01T04:15:57;7.13;;;1.97;;
20181;SDS011;10250;50.756;6.172;2023-02-01T04:17:57;9.20;;;1.70;;
20181;SDS011;10250;50.756;6.172;2023-02-01T04:19:58;11.73;;;2.10;;
20181;SDS011;10250;50.756;6.172;2023-02-01T04:21:59;5.73;;;2.17;;
20181;SDS011;10250;50.756;6.172;2023-02-01T04:24:00;5.47;;;1.47;;
20181;SDS011;10250;50.756;6.172;2023-02-01T04:26:03;7.33;;;1.93;;
20181;SDS011;10250;50.756;6.172;2023-02-01T04:28:04;5.60;;;1.63;;
20181;SDS011;10250;50.756;6.172;2023-02-01T04:30:06;8.50;;;1.50;;
20181;SDS011;10250;50.756;6.172;2023-02-01T04:32:09;6.73;;;1.73;;
20181;SDS011;10250;50.756;6.172;2023-02-01T04:34:10;9.47;;;1.93;;
20181;SDS011;10250;50.756;6.172;2023-02-01T04:36:11;7.43;;;1.73;;
20181;SDS011;10250;50.756;6.172;2023-02-01T04:38:12;9.33;;;2.20;;
20181;SDS011;10250;50.756;6.172;2023-02-01T04:40:13;4.63;;;1.37;;
20181;SDS011;10250;50.756;6.172;2023-02-01T04:42:14;6.70;;;1.40;;
20181;SDS011;10250;50.756;6.172;2023-02-01T04:44:16;7.17;;;1.67;;
20181;SDS011;10250;50.756;6.172;2023-02-01T04:46:17;6.27;;;1.57;;
20181;SDS011;10250;50.756;6.172;2023-02-01T04:48:19;7.13;;;1.37;;
20181;SDS011;10250;50.756;6.172;2023-02-01T04:50:20;8.07;;;1.87;;
20181;SDS011;10250;50.756;6.172;2023-02-01T04:52:21;6.90;;;1.83;;
20181;SDS011;10250;50.756;6.172;2023-02-01T04:54:22;6.63;;;1.47;;
20181;SDS011;10250;50.756;6.172;2023-02-01T04:56:23;9.47;;;2.00;;
20181;SDS011;10250;50.756;6.172;2023-02-01T04:58:24;10.07;;;1.50;;
20181;SDS011;10250;50.756;6.172;2023-02-01T05:00:25;7.37;;;1.50;;
20181;SDS011;10250;50.756;6.172;2023-02-01T05:02:26;6.43;;;1.50;;
20181;SDS011;10250;50.756;6.172;2023-02-01T05:04:27;5.50;;;1.57;;
20181;SDS011;10250;50.756;6.172;2023-02-01T05:06:28;6.70;;;1.70;;
20181;SDS011;10250;50.756;6.172;2023-02-01T05:08:29;9.63;;;2.10;;
20181;SDS011;10250;50.756;6.172;2023-02-01T05:10:30;7.27;;;1.40;;
20181;SDS011;10250;50.756;6.172;2023-02-01T05:12:31;12.40;;;1.73;;
20181;SDS011;10250;50.756;6.172;2023-02-01T05:14:50;8.07;;;1.90;;
20181;SDS011;10250;50.756;6.172;2023-02-01T05:16:52;9.37;;;2.10;;
20181;SDS011;10250;50.756;6.172;2023-02-01T05:18:53;10.27;;;1.50;;
20181;SDS011;10250;50.756;6.172;2023-02-01T05:20:54;7.10;;;1.70;;
20181;SDS011;10250;50.756;6.172;2023-02-01T05:22:55;12.00;;;1.87;;
20181;SDS011;10250;50.756;6.172;2023-02-01T05:24:56;6.67;;;1.30;;
20181;SDS011;10250;50.756;6.172;2023-02-01T05:26:57;7.30;;;1.73;;
20181;SDS011;10250;50.756;6.172;2023-02-01T05:28:58;4.70;;;1.20;;
20181;SDS011;10250;50.756;6.172;2023-02-01T05:30:59;10.60;;;1.77;;
20181;SDS011;10250;50.756;6.172;2023-02-01T05:33:00;3.90;;;1.30;;
20181;SDS011;10250;50.756;6.172;2023-02-01T05:35:01;5.73;;;1.57;;
20181;SDS011;10250;50.756;6.172;2023-02-01T05:37:02;3.97;;;1.20;;
20181;SDS011;10250;50.756;6.172;2023-02-01T05:39:03;8.87;;;1.80;;
20181;SDS011;10250;50.756;6.172;2023-02-01T05:41:04;7.00;;;1.40;;
20181;SDS011;10250;50.756;6.172;2023-02-01T05:43:05;5.40;;;1.50;;
20181;SDS011;10250;50.756;6.172;2023-02-01T05:45:06;6.40;;;1.30;;
20181;SDS011;10250;50.756;6.172;2023-02-01T05:47:08;5.33;;;1.33;;
20181;SDS011;10250;50.756;6.172;2023-02-01T05:49:09;6.50;;;1.50;;
20181;SDS011;10250;50.756;6.172;2023-02-01T05:51:10;10.77;;;1.57;;
20181;SDS011;10250;50.756;6.172;2023-02-01T05:53:12;5.03;;;1.50;;
20181;SDS011;10250;50.756;6.172;2023-02-01T05:55:13;7.23;;;1.43;;
20181;SDS011;10250;50.756;6.172;2023-02-01T05:57:14;10.17;;;1.90;;
20181;SDS011;10250;50.756;6.172;2023-02-01T05:59:15;4.77;;;1.37;;
20181;SDS011;10250;50.756;6.172;2023-02-01T06:01:16;6.97;;;1.40;;
20181;SDS011;10250;50.756;6.172;2023-02-01T06:03:17;9.50;;;1.40;;
20181;SDS011;10250;50.756;6.172;2023-02-01T06:05:18;15.30;;;1.50;;
20181;SDS011;10250;50.756;6.172;2023-02-01T06:07:19;11.60;;;2.23;;
20181;SDS011;10250;50.756;6.172;2023-02-01T06:09:20;9.63;;;1.47;;
20181;SDS011;10250;50.756;6.172;2023-02-01T06:11:21;9.27;;;1.87;;
20181;SDS011;10250;50.756;6.172;2023-02-01T06:13:22;8.00;;;1.63;;
20181;SDS011;10250;50.756;6.172;2023-02-01T06:15:23;4.80;;;1.57;;
20181;SDS011;10250;50.756;6.172;2023-02-01T06:17:24;6.67;;;1.20;;
20181;SDS011;10250;50.756;6.172;2023-02-01T06:19:25;7.50;;;1.53;;
20181;SDS011;10250;50.756;6.172;2023-02-01T06:21:26;7.30;;;1.40;;
20181;SDS011;10250;50.756;6.172;2023-02-01T06:23:27;4.40;;;1.50;;
20181;SDS011;10250;50.756;6.172;2023-02-01T06:25:28;7.33;;;1.63;;
20181;SDS011;10250;50.756;6.172;2023-02-01T06:27:29;6.93;;;1.47;;
20181;SDS011;10250;50.756;6.172;2023-02-01T06:29:30;6.33;;;1.30;;
20181;SDS011;10250;50.756;6.172;2023-02-01T06:31:32;8.13;;;1.43;;
20181;SDS011;10250;50.756;6.172;2023-02-01T06:33:33;4.97;;;1.47;;
20181;SDS011;10250;50.756;6.172;2023-02-01T06:35:34;7.03;;;1.50;;
20181;SDS011;10250;50.756;6.172;2023-02-01T06:37:36;11.97;;;2.13;;
20181;SDS011;10250;50.756;6.172;2023-02-01T06:39:37;9.80;;;2.30;;
20181;SDS011;10250;50.756;6.172;2023-02-01T06:41:38;6.67;;;1.20;;
20181;SDS011;10250;50.756;6.172;2023-02-01T06:43:39;5.43;;;1.70;;
20181;SDS011;10250;50.756;6.172;2023-02-01T06:45:40;9.63;;;1.57;;
20181;SDS011;10250;50.756;6.172;2023-02-01T06:47:41;8.73;;;1.20;;
20181;SDS011;10250;50.756;6.172;2023-02-01T06:49:42;6.00;;;2.10;;
20181;SDS011;10250;50.756;6.172;2023-02-01T06:51:43;5.27;;;1.70;;
20181;SDS011;10250;50.756;6.172;2023-02-01T06:53:44;8.03;;;1.43;;
20181;SDS011;10250;50.756;6.172;2023-02-01T06:55:58;7.57;;;1.93;;
20181;SDS011;10250;50.756;6.172;2023-02-01T06:57:59;11.27;;;1.73;;
20181;SDS011;10250;50.756;6.172;2023-02-01T07:00:02;7.03;;;1.67;;
20181;SDS011;10250;50.756;6.172;2023-02-01T07:02:03;10.57;;;2.53;;
20181;SDS011;10250;50.756;6.172;2023-02-01T07:04:04;7.77;;;1.50;;
20181;SDS011;10250;50.756;6.172;2023-02-01T07:06:06;5.47;;;1.40;;
20181;SDS011;10250;50.756;6.172;2023-02-01T07:08:07;6.23;;;1.33;;
20181;SDS011;10250;50.756;6.172;2023-02-01T07:10:08;2.53;;;1.03;;
20181;SDS011;10250;50.756;6.172;2023-02-01T07:12:09;7.60;;;1.60;;
20181;SDS011;10250;50.756;6.172;2023-02-01T07:14:10;8.17;;;1.93;;
20181;SDS011;10250;50.756;6.172;2023-02-01T07:16:13;12.23;;;1.73;;
20181;SDS011;10250;50.756;6.172;2023-02-01T07:18:15;6.07;;;1.20;;
20181;SDS011;10250;50.756;6.172;2023-02-01T07:20:16;12.27;;;2.00;;
20181;SDS011;10250;50.756;6.172;2023-02-01T07:22:17;7.47;;;1.47;;
20181;SDS011;10250;50.756;6.172;2023-02-01T07:24:18;10.23;;;1.67;;
20181;SDS011;10250;50.756;6.172;2023-02-01T07:26:19;9.53;;;1.60;;
20181;SDS011;10250;50.756;6.172;2023-02-01T07:28:20;7.77;;;1.33;;
20181;SDS011;10250;50.756;6.172;2023-02-01T07:30:22;8.33;;;2.03;;
20181;SDS011;10250;50.756;6.172;2023-02-01T07:32:23;5.73;;;1.17;;
20181;SDS011;10250;50.756;6.172;2023-02-01T07:34:24;9.00;;;2.03;;
20181;SDS011;10250;50.756;6.172;2023-02-01T07:36:25;7.63;;;1.97;;
20181;SDS011;10250;50.756;6.172;2023-02-01T07:38:26;5.00;;;1.23;;
20181;SDS011;10250;50.756;6.172;2023-02-01T07:40:28;5.10;;;1.30;;
20181;SDS011;10250;50.756;6.172;2023-02-01T07:42:30;3.63;;;1.07;;
20181;SDS011;10250;50.756;6.172;2023-02-01T07:44:31;9.70;;;1.20;;
20181;SDS011;10250;50.756;6.172;2023-02-01T07:46:32;7.07;;;1.80;;
20181;SDS011;10250;50.756;6.172;2023-02-01T07:48:33;9.20;;;1.97;;
20181;SDS011;10250;50.756;6.172;2023-02-01T07:50:34;6.73;;;1.43;;
20181;SDS011;10250;50.756;6.172;2023-02-01T07:52:35;12.60;;;1.63;;
20181;SDS011;10250;50.756;6.172;2023-02-01T07:54:36;5.50;;;1.40;;
20181;SDS011;10250;50.756;6.172;2023-02-01T07:56:36;6.03;;;1.23;;
20181;SDS011;10250;50.756;6.172;2023-02-01T07:58:37;4.87;;;1.23;;
20181;SDS011;10250;50.756;6.172;2023-02-01T08:00:38;6.80;;;1.80;;
20181;SDS011;10250;50.756;6.172;2023-02-01T08:02:58;9.57;;;1.83;;
20181;SDS011;10250;50.756;6.172;2023-02-01T08:04:59;8.57;;;1.80;;
20181;SDS011;10250;50.756;6.172;2023-02-01T08:07:00;4.43;;;1.23;;
20181;SDS011;10250;50.756;6.172;2023-02-01T08:09:01;9.07;;;1.87;;
20181;SDS011;10250;50.756;6.172;2023-02-01T08:11:04;10.13;;;1.50;;
20181;SDS011;10250;50.756;6.172;2023-02-01T08:15:16;6.70;;;1.40;;
20181;SDS011;10250;50.756;6.172;2023-02-01T08:17:17;4.93;;;1.23;;
20181;SDS011;10250;50.756;6.172;2023-02-01T08:19:18;9.73;;;1.37;;
20181;SDS011;10250;50.756;6.172;2023-02-01T08:21:20;6.10;;;1.47;;
20181;SDS011;10250;50.756;6.172;2023-02-01T08:23:22;6.00;;;1.37;;
20181;SDS011;10250;50.756;6.172;2023-02-01T08:25:23;4.37;;;1.20;;
20181;SDS011;10250;50.756;6.172;2023-02-01T08:27:24;7.53;;;1.43;;
20181;SDS011;10250;50.756;6.172;2023-02-01T08:29:25;6.63;;;1.53;;
20181;SDS011;10250;50.756;6.172;2023-02-01T08:31:27;12.40;;;1.53;;
20181;SDS011;10250;50.756;6.172;2023-02-01T08:33:28;2.87;;;1.00;;
20181;SDS011;10250;50.756;6.172;2023-02-01T08:35:29;11.63;;;1.73;;
20181;SDS011;10250;50.756;6.172;2023-02-01T08:37:30;8.20;;;1.73;;
20181;SDS011;10250;50.756;6.172;2023-02-01T08:39:31;10.20;;;1.40;;
20181;SDS011;10250;50.756;6.172;2023-02-01T08:41:32;4.53;;;1.47;;
20181;SDS011;10250;50.756;6.172;2023-02-01T08:43:33;3.87;;;1.20;;
20181;SDS011;10250;50.756;6.172;2023-02-01T08:45:34;11.57;;;1.77;;
20181;SDS011;10250;50.756;6.172;2023-02-01T08:47:35;5.73;;;1.20;;
20181;SDS011;10250;50.756;6.172;2023-02-01T08:49:36;9.27;;;1.50;;
20181;SDS011;10250;50.756;6.172;2023-02-01T08:51:37;7.17;;;1.23;;
20181;SDS011;10250;50.756;6.172;2023-02-01T08:53:39;5.13;;;1.37;;
20181;SDS011;10250;50.756;6.172;2023-02-01T08:55:41;10.27;;;1.90;;
20181;SDS011;10250;50.756;6.172;2023-02-01T08:57:42;5.63;;;1.30;;
20181;SDS011;10250;50.756;6.172;2023-02-01T08:59:43;5.17;;;1.13;;
20181;SDS011;10250;50.756;6.172;2023-02-01T09:01:44;5.23;;;1.40;;
20181;SDS011;10250;50.756;6.172;2023-02-01T09:03:45;4.30;;;1.10;;
20181;SDS011;10250;50.756;6.172;2023-02-01T09:05:46;4.40;;;1.40;;
20181;SDS011;10250;50.756;6.172;2023-02-01T09:07:47;5.33;;;1.20;;
20181;SDS011;10250;50.756;6.172;2023-02-01T09:09:48;8.70;;;1.57;;
20181;SDS011;10250;50.756;6.172;2023-02-01T09:11:49;6.07;;;1.73;;
20181;SDS011;10250;50.756;6.172;2023-02-01T09:13:50;3.47;;;1.13;;
20181;SDS011;10250;50.756;6.172;2023-02-01T09:15:51;8.13;;;1.20;;
20181;SDS011;10250;50.756;6.172;2023-02-01T09:17:52;3.40;;;1.33;;
20181;SDS011;10250;50.756;6.172;2023-02-01T09:19:53;9.17;;;1.87;;
20181;SDS011;10250;50.756;6.172;2023-02-01T09:21:54;10.20;;;1.70;;
20181;SDS011;10250;50.756;6.172;2023-02-01T09:23:55;8.13;;;1.50;;
20181;SDS011;10250;50.756;6.172;2023-02-01T09:26:02;5.97;;;1.70;;
20181;SDS011;10250;50.756;6.172;2023-02-01T09:28:04;9.70;;;1.33;;
20181;SDS011;10250;50.756;6.172;2023-02-01T09:30:06;4.27;;;0.93;;
20181;SDS011;10250;50.756;6.172;2023-02-01T09:32:07;9.70;;;1.20;;
20181;SDS011;10250;50.756;6.172;2023-02-01T09:34:08;9.43;;;1.47;;
20181;SDS011;10250;50.756;6.172;2023-02-01T09:36:09;3.13;;;0.80;;
20181;SDS011;10250;50.756;6.172;2023-02-01T09:38:10;5.83;;;1.57;;
20181;SDS011;10250;50.756;6.172;2023-02-01T09:40:15;7.70;;;1.80;;
20181;SDS011;10250;50.756;6.172;2023-02-01T09:46:32;6.50;;;1.53;;
20181;SDS011;10250;50.756;6.172;2023-02-01T09:48:35;6.00;;;1.27;;
20181;SDS011;10250;50.756;6.172;2023-02-01T09:50:38;7.83;;;1.53;;
20181;SDS011;10250;50.756;6.172;2023-02-01T09:52:42;5.40;;;1.20;;
20181;SDS011;10250;50.756;6.172;2023-02-01T09:54:47;5.87;;;1.27;;
20181;SDS011;10250;50.756;6.172;2023-02-01T09:59:31;5.57;;;1.43;;
20181;SDS011;10250;50.756;6.172;2023-02-01T10:01:25;7.33;;;1.60;;
20181;SDS011;10250;50.756;6.172;2023-02-01T10:03:28;6.63;;;1.70;;
20181;SDS011;10250;50.756;6.172;2023-02-01T10:10:04;6.70;;;1.43;;
20181;SDS011;10250;50.756;6.172;2023-02-01T10:16:55;7.07;;;1.13;;
20181;SDS011;10250;50.756;6.172;2023-02-01T10:25:31;9.20;;;1.90;;
20181;SDS011;10250;50.756;6.172;2023-02-01T10:27:34;9.67;;;2.27;;
20181;SDS011;10250;50.756;6.172;2023-02-01T10:29:39;6.97;;;2.00;;
20181;SDS011;10250;50.756;6.172;2023-02-01T10:31:41;8.87;;;1.43;;
20181;SDS011;10250;50.756;6.172;2023-02-01T10:33:49;10.03;;;1.47;;
20181;SDS011;10250;50.756;6.172;2023-02-01T10:38:44;5.67;;;1.40;;
20181;SDS011;10250;50.756;6.172;2023-02-01T10:40:38;14.63;;;1.90;;
20181;SDS011;10250;50.756;6.172;2023-02-01T10:42:39;6.33;;;1.43;;
20181;SDS011;10250;50.756;6.172;2023-02-01T10:44:42;6.60;;;1.63;;
20181;SDS011;10250;50.756;6.172;2023-02-01T10:46:45;6.00;;;1.40;;
20181;SDS011;10250;50.756;6.172;2023-02-01T10:48:47;3.07;;;1.23;;
20181;SDS011;10250;50.756;6.172;2023-02-01T10:50:49;8.63;;;1.43;;
20181;SDS011;10250;50.756;6.172;2023-02-01T10:52:57;6.90;;;1.60;;
20181;SDS011;10250;50.756;6.172;2023-02-01T10:57:21;8.83;;;1.90;;
20181;SDS011;10250;50.756;6.172;2023-02-01T10:59:24;8.60;;;1.73;;
20181;SDS011;10250;50.756;6.172;2023-02-01T11:01:28;10.70;;;2.00;;
20181;SDS011;10250;50.756;6.172;2023-02-01T11:05:44;7.10;;;1.37;;
20181;SDS011;10250;50.756;6.172;2023-02-01T11:07:46;8.07;;;1.67;;
20181;SDS011;10250;50.756;6.172;2023-02-01T11:09:50;5.13;;;1.20;;
20181;SDS011;10250;50.756;6.172;2023-02-01T11:13:56;7.47;;;1.67;;
20181;SDS011;10250;50.756;6.172;2023-02-01T11:15:58;6.93;;;1.47;;
20181;SDS011;10250;50.756;6.172;2023-02-01T11:18:12;7.80;;;1.50;;
20181;SDS011;10250;50.756;6.172;2023-02-01T11:20:16;7.83;;;1.57;;
20181;SDS011;10250;50.756;6.172;2023-02-01T11:22:17;10.27;;;1.60;;
20181;SDS011;10250;50.756;6.172;2023-02-01T11:24:22;10.30;;;1.90;;
20181;SDS011;10250;50.756;6.172;2023-02-01T11:26:24;8.33;;;1.57;;
20181;SDS011;10250;50.756;6.172;2023-02-01T11:28:27;8.00;;;1.57;;
20181;SDS011;10250;50.756;6.172;2023-02-01T11:30:38;8.93;;;1.30;;
20181;SDS011;10250;50.756;6.172;2023-02-01T11:32:40;4.97;;;1.47;;
20181;SDS011;10250;50.756;6.172;2023-02-01T11:34:43;5.30;;;1.30;;
20181;SDS011;10250;50.756;6.172;2023-02-01T11:36:48;8.60;;;1.60;;
20181;SDS011;10250;50.756;6.172;2023-02-01T11:38:54;8.03;;;1.30;;
20181;SDS011;10250;50.756;6.172;2023-02-01T11:40:55;6.23;;;1.70;;
20181;SDS011;10250;50.756;6.172;2023-02-01T11:43:23;7.10;;;1.50;;
20181;SDS011;10250;50.756;6.172;2023-02-01T11:45:26;8.57;;;2.03;;
20181;SDS011;10250;50.756;6.172;2023-02-01T11:47:31;9.33;;;1.70;;
20181;SDS011;10250;50.756;6.172;2023-02-01T11:49:32;4.93;;;1.33;;
20181;SDS011;10250;50.756;6.172;2023-02-01T11:53:53;3.17;;;1.10;;
20181;SDS011;10250;50.756;6.172;2023-02-01T12:04:37;9.70;;;1.83;;
20181;SDS011;10250;50.756;6.172;2023-02-01T12:13:36;6.13;;;1.60;;
20181;SDS011;10250;50.756;6.172;2023-02-01T12:15:22;3.37;;;1.07;;
20181;SDS011;10250;50.756;6.172;2023-02-01T12:24:15;6.40;;;1.27;;
20181;SDS011;10250;50.756;6.172;2023-02-01T12:47:20;4.50;;;1.10;;
20181;SDS011;10250;50.756;6.172;2023-02-01T12:49:38;6.90;;;1.20;;
20181;SDS011;10250;50.756;6.172;2023-02-01T12:51:41;5.53;;;1.33;;
20181;SDS011;10250;50.756;6.172;2023-02-01T12:53:45;6.67;;;1.60;;
20181;SDS011;10250;50.756;6.172;2023-02-01T12:55:48;6.03;;;1.27;;
20181;SDS011;10250;50.756;6.172;2023-02-01T12:58:03;3.20;;;1.13;;
20181;SDS011;10250;50.756;6.172;2023-02-01T13:04:27;5.57;;;1.40;;
20181;SDS011;10250;50.756;6.172;2023-02-01T13:06:31;5.07;;;1.20;;
20181;SDS011;10250;50.756;6.172;2023-02-01T13:08:42;3.27;;;1.10;;
20181;SDS011;10250;50.756;6.172;2023-02-01T13:10:48;6.53;;;1.37;;
20181;SDS011;10250;50.756;6.172;2023-02-01T13:12:54;3.53;;;1.00;;
20181;SDS011;10250;50.756;6.172;2023-02-01T13:14:58;9.73;;;1.70;;
20181;SDS011;10250;50.756;6.172;2023-02-01T13:17:05;7.07;;;1.67;;
20181;SDS011;10250;50.756;6.172;2023-02-01T13:21:18;4.53;;;1.27;;
20181;SDS011;10250;50.756;6.172;2023-02-01T13:23:27;3.60;;;1.10;;
20181;SDS011;10250;50.756;6.172;2023-02-01T13:25:31;6.63;;;1.30;;
20181;SDS011;10250;50.756;6.172;2023-02-01T13:27:33;8.53;;;1.50;;
20181;SDS011;10250;50.756;6.172;2023-02-01T13:29:34;7.40;;;1.50;;
20181;SDS011;10250;50.756;6.172;2023-02-01T13:36:18;3.23;;;1.00;;
20181;SDS011;10250;50.756;6.172;2023-02-01T13:40:33;9.57;;;1.07;;
20181;SDS011;10250;50.756;6.172;2023-02-01T13:42:47;8.93;;;2.23;;
20181;SDS011;10250;50.756;6.172;2023-02-01T13:44:55;5.80;;;1.33;;
20181;SDS011;10250;50.756;6.172;2023-02-01T13:46:58;8.53;;;1.87;;
20181;SDS011;10250;50.756;6.172;2023-02-01T13:49:01;6.33;;;1.50;;
20181;SDS011;10250;50.756;6.172;2023-02-01T13:51:03;7.80;;;1.60;;
20181;SDS011;10250;50.756;6.172;2023-02-01T13:53:11;9.00;;;1.73;;
20181;SDS011;10250;50.756;6.172;2023-02-01T13:55:15;5.93;;;1.30;;
20181;SDS011;10250;50.756;6.172;2023-02-01T13:57:44;8.03;;;1.50;;
20181;SDS011;10250;50.756;6.172;2023-02-01T14:01:45;7.63;;;1.20;;
20181;SDS011;10250;50.756;6.172;2023-02-01T14:04:00;6.17;;;1.27;;
20181;SDS011;10250;50.756;6.172;2023-02-01T14:06:02;7.80;;;1.43;;
20181;SDS011;10250;50.756;6.172;2023-02-01T14:12:44;4.90;;;1.20;;
20181;SDS011;10250;50.756;6.172;2023-02-01T14:14:45;4.30;;;1.10;;
20181;SDS011;10250;50.756;6.172;2023-02-01T14:18:57;7.93;;;1.50;;
20181;SDS011;10250;50.756;6.172;2023-02-01T14:23:18;2.33;;;1.20;;
20181;SDS011;10250;50.756;6.172;2023-02-01T14:25:21;6.03;;;1.23;;
20181;SDS011;10250;50.756;6.172;2023-02-01T14:27:26;8.63;;;1.10;;
20181;SDS011;10250;50.756;6.172;2023-02-01T14:29:31;5.20;;;1.33;;
20181;SDS011;10250;50.756;6.172;2023-02-01T14:33:57;3.27;;;0.90;;